createdAt,value
2022-10-22T00:00:54.233Z,99932.03
2022-10-22T00:03:22.134Z,99929.28
2022-10-22T00:05:50.023Z,99940.22
2022-10-22T00:08:17.927Z,99939.56
2022-10-22T00:10:45.731Z,99946.69
2022-10-22T00:13:13.714Z,99942.06
2022-10-22T00:15:41.485Z,99926.75
2022-10-22T00:18:09.557Z,99922.97
2022-10-22T00:20:37.353Z,99934.75
2022-10-22T00:23:05.174Z,99934.94
2022-10-22T00:25:33.075Z,99941.44
2022-10-22T00:28:00.874Z,99940.22
2022-10-22T00:30:28.662Z,99935.78
2022-10-22T00:32:56.539Z,99931.16
2022-10-22T00:35:24.326Z,99936.59
2022-10-22T00:37:52.223Z,99942.06
2022-10-22T00:40:20.137Z,99945.03
2022-10-22T00:42:47.943Z,99953.19
2022-10-22T00:45:16.552Z,99972.31
2022-10-22T00:47:44.404Z,99972.31
2022-10-22T00:50:12.303Z,99969.56
2022-10-22T00:52:40.496Z,99950.47
2022-10-22T00:55:08.563Z,99950.47
2022-10-22T00:57:36.362Z,99955.28
2022-10-22T01:00:04.443Z,99959.69
2022-10-22T01:02:32.254Z,99953.41
2022-10-22T01:05:00.189Z,99952.56
2022-10-22T01:07:28.151Z,99959.69
2022-10-22T01:09:56.277Z,99956.97
2022-10-22T01:12:24.296Z,99956.13
2022-10-22T01:14:52.187Z,99952.56
2022-10-22T01:19:48.981Z,99955.28
2022-10-22T01:22:16.861Z,99958.03
2022-10-22T01:24:44.702Z,99947.94
2022-10-22T01:27:12.582Z,99949.84
2022-10-22T01:29:40.532Z,99959.69
2022-10-22T01:32:08.379Z,99947.94
2022-10-22T01:34:36.430Z,99938.09
2022-10-22T01:37:04.445Z,99940.81
2022-10-22T01:39:32.336Z,99945.44
2022-10-22T01:42:00.422Z,99948.16
2022-10-22T01:44:28.303Z,99949.19
2022-10-22T01:46:56.228Z,99953.63
2022-10-22T01:49:24.089Z,99955.47
2022-10-22T01:51:51.978Z,99956.34
2022-10-22T01:54:19.850Z,99951.06
2022-10-22T01:56:47.651Z,99954.00
2022-10-22T01:59:15.564Z,99950.25
2022-10-22T02:01:43.456Z,99938.28
2022-10-22T02:04:11.339Z,99935.75
2022-10-22T02:06:39.239Z,99929.44
2022-10-22T02:09:07.307Z,99935.53
2022-10-22T02:11:35.387Z,99942.06
2022-10-22T02:14:03.333Z,99944.78
2022-10-22T02:16:31.229Z,99938.50
2022-10-22T02:18:59.158Z,99937.63
2022-10-22T02:21:27.148Z,99931.34
2022-10-22T02:23:54.975Z,99927.59
2022-10-22T02:26:23.005Z,99919.41
2022-10-22T02:28:50.865Z,99922.97
2022-10-22T02:31:18.895Z,99920.22
2022-10-22T02:33:46.992Z,99910.56
2022-10-22T02:36:14.844Z,99914.13
2022-10-22T02:38:42.838Z,99915.19
2022-10-22T02:41:10.665Z,99915.19
2022-10-22T02:43:38.657Z,99911.59
2022-10-22T02:46:06.648Z,99897.94
2022-10-22T02:48:34.503Z,99909.72
2022-10-22T02:51:02.542Z,99915.19
2022-10-22T02:53:32.038Z,99917.69
2022-10-22T02:55:59.956Z,99914.13
2022-10-22T02:58:27.932Z,99915.19
2022-10-22T03:00:55.883Z,99911.59
2022-10-22T03:03:23.710Z,99920.66
2022-10-22T03:05:51.543Z,99929.03
2022-10-22T03:08:19.396Z,99928.84
2022-10-22T03:10:47.360Z,99923.38
2022-10-22T03:13:15.315Z,99936.78
2022-10-22T03:15:43.350Z,99937.84
2022-10-22T03:18:11.172Z,99937.84
2022-10-22T03:20:39.163Z,99945.81
2022-10-22T03:23:06.962Z,99937.84
2022-10-22T03:25:34.892Z,99941.59
2022-10-22T03:28:03.097Z,99946.22
2022-10-22T03:30:30.977Z,99960.69
2022-10-22T03:32:59.131Z,99957.97
2022-10-22T03:35:26.820Z,99960.69
2022-10-22T03:37:54.553Z,99947.94
2022-10-22T03:40:22.433Z,99947.06
2022-10-22T03:42:50.202Z,99952.53
2022-10-22T03:45:17.902Z,99948.75
2022-10-22T03:47:45.686Z,99953.16
2022-10-22T03:50:13.378Z,99954.00
2022-10-22T03:52:41.137Z,99948.53
2022-10-22T03:55:08.881Z,99962.00
2022-10-22T03:57:36.704Z,99966.81
2022-10-22T04:00:04.529Z,99967.88
2022-10-22T04:02:32.220Z,99964.31
2022-10-22T04:04:59.960Z,99960.50
2022-10-22T04:07:27.679Z,99962.19
2022-10-22T04:09:55.355Z,99958.63
2022-10-22T04:12:23.024Z,99962.19
2022-10-22T04:14:50.678Z,99965.97
2022-10-22T04:17:18.423Z,99963.25
2022-10-22T04:19:46.115Z,99963.25
2022-10-22T04:22:13.830Z,99967.03
2022-10-22T04:24:42.032Z,99969.75
2022-10-22T04:27:09.841Z,99973.50
2022-10-22T04:29:40.665Z,99969.94
2022-10-22T04:32:08.426Z,99978.13
2022-10-22T04:34:36.296Z,99978.97
2022-10-22T04:37:05.067Z,99982.75
2022-10-22T04:39:32.965Z,99981.06
2022-10-22T04:42:00.616Z,99981.06
2022-10-22T04:44:28.284Z,99975.59
2022-10-22T04:46:55.914Z,99983.16
2022-10-22T04:49:23.775Z,99982.13
2022-10-22T04:51:51.456Z,99979.16
2022-10-22T04:54:19.142Z,99975.06
2022-10-22T04:56:46.846Z,99972.19
2022-10-22T04:59:14.511Z,99978.19
2022-10-22T05:01:43.175Z,99966.03
2022-10-22T05:04:11.252Z,99969.38
2022-10-22T05:06:38.976Z,99972.28
2022-10-22T05:09:07.095Z,99967.75
2022-10-22T05:11:35.056Z,99968.78
2022-10-22T05:14:02.722Z,99965.53
2022-10-22T05:16:30.381Z,99960.44
2022-10-22T05:18:58.117Z,99971.16
2022-10-22T05:21:25.813Z,99977.94
2022-10-22T05:23:53.476Z,99974.13
2022-10-22T05:26:21.158Z,99971.94
2022-10-22T05:28:48.850Z,99972.38
2022-10-22T05:31:16.519Z,99985.44
2022-10-22T05:33:44.223Z,99987.88
2022-10-22T05:36:11.893Z,99991.53
2022-10-22T05:38:39.687Z,99982.47
2022-10-22T05:41:07.459Z,100001.56
2022-10-22T05:43:35.085Z,100008.09
2022-10-22T05:46:03.005Z,100002.53
2022-10-22T05:48:30.640Z,100009.47
2022-10-22T05:50:58.462Z,100008.28
2022-10-22T05:53:26.108Z,100017.66
2022-10-22T05:55:53.769Z,100015.84
2022-10-22T05:58:21.448Z,100006.50
2022-10-22T06:00:49.101Z,100006.91
2022-10-22T06:03:16.855Z,100012.34
2022-10-22T06:05:44.535Z,100017.56
2022-10-22T06:08:15.611Z,100030.75
2022-10-22T06:10:46.680Z,100038.84
2022-10-22T06:13:14.468Z,100038.91
2022-10-22T06:15:42.158Z,100045.53
2022-10-22T06:18:09.803Z,100050.63
2022-10-22T06:20:37.493Z,100050.50
2022-10-22T06:23:05.140Z,100051.78
2022-10-22T06:25:32.832Z,100052.22
2022-10-22T06:28:00.610Z,100060.22
2022-10-22T06:30:28.283Z,100060.78
2022-10-22T06:32:55.969Z,100068.34
2022-10-22T06:35:23.706Z,100064.13
2022-10-22T06:37:51.415Z,100067.94
2022-10-22T06:40:19.503Z,100071.72
2022-10-22T06:42:47.233Z,100069.88
2022-10-22T06:45:15.006Z,100077.69
2022-10-22T06:47:43.305Z,100082.34
2022-10-22T06:50:11.208Z,100084.63
2022-10-22T06:52:39.007Z,100093.91
2022-10-22T06:55:06.839Z,100094.16
2022-10-22T06:57:34.738Z,100097.31
2022-10-22T07:00:02.682Z,100106.78
2022-10-22T07:02:30.490Z,100098.81
2022-10-22T07:04:58.260Z,100109.75
2022-10-22T07:07:26.051Z,100107.88
2022-10-22T07:09:53.842Z,100112.69
2022-10-22T07:12:21.576Z,100108.91
2022-10-22T07:14:49.280Z,100118.16
2022-10-22T07:17:16.957Z,100122.34
2022-10-22T07:19:47.161Z,100128.25
2022-10-22T07:22:17.691Z,100134.16
2022-10-22T07:24:45.460Z,100137.88
2022-10-22T07:27:13.248Z,100141.66
2022-10-22T07:29:41.385Z,100142.72
2022-10-22T07:32:09.195Z,100149.25
2022-10-22T07:34:38.492Z,100144.19
2022-10-22T07:37:08.249Z,100151.53
2022-10-22T07:39:36.207Z,100149.88
2022-10-22T07:42:03.887Z,100156.41
2022-10-22T07:44:31.589Z,100162.25
2022-10-22T07:46:59.325Z,100168.13
2022-10-22T07:49:27.119Z,100167.28
2022-10-22T07:51:54.894Z,100170.22
2022-10-22T07:54:22.923Z,100163.09
2022-10-22T07:56:50.850Z,100163.50
2022-10-22T07:59:18.675Z,100164.13
2022-10-22T08:01:47.012Z,100162.63
2022-10-22T08:04:14.732Z,100170.41
2022-10-22T08:06:45.805Z,100169.75
2022-10-22T08:09:15.214Z,100175.66
2022-10-22T08:11:43.105Z,100178.56
2022-10-22T08:14:10.848Z,100168.25
2022-10-22T08:16:38.715Z,100170.13
2022-10-22T08:19:06.630Z,100168.88
2022-10-22T08:21:34.471Z,100172.88
2022-10-22T08:24:02.230Z,100171.16
2022-10-22T08:26:30.313Z,100174.13
2022-10-22T08:28:58.113Z,100179.78
2022-10-22T08:31:25.828Z,100177.22
2022-10-22T08:33:53.741Z,100178.28
2022-10-22T08:36:21.495Z,100174.91
2022-10-22T08:38:49.332Z,100177.63
2022-10-22T08:41:17.094Z,100176.81
2022-10-22T08:43:45.025Z,100193.84
2022-10-22T08:46:12.820Z,100197.00
2022-10-22T08:48:40.545Z,100198.84
2022-10-22T08:51:08.406Z,100199.91
2022-10-22T08:53:36.100Z,100201.81
2022-10-22T08:56:03.814Z,100202.00
2022-10-22T08:58:34.558Z,100211.91
2022-10-22T09:01:02.251Z,100215.88
2022-10-22T09:03:30.064Z,100210.19
2022-10-22T09:05:57.859Z,100214.16
2022-10-22T09:08:25.770Z,100217.75
2022-10-22T09:10:53.620Z,100216.06
2022-10-22T09:13:21.331Z,100216.28
2022-10-22T09:15:49.026Z,100219.00
2022-10-22T09:18:16.702Z,100225.31
2022-10-22T09:20:44.352Z,100217.94
2022-10-22T09:23:12.115Z,100223.41
2022-10-22T09:25:40.050Z,100220.69
2022-10-22T09:28:08.001Z,100227.22
2022-10-22T09:30:35.865Z,100228.03
2022-10-22T09:33:03.705Z,100235.19
2022-10-22T09:35:31.604Z,100225.31
2022-10-22T09:37:59.344Z,100220.88
2022-10-22T09:40:27.218Z,100225.31
2022-10-22T09:42:55.101Z,100219.19
2022-10-22T09:45:23.106Z,100224.00
2022-10-22T09:48:01.510Z,100228.63
2022-10-22T09:50:31.189Z,100224.22
2022-10-22T09:52:59.070Z,100224.41
2022-10-22T09:55:26.936Z,100222.91
2022-10-22T09:57:54.722Z,100237.41
2022-10-22T10:00:25.003Z,100234.50
2022-10-22T10:02:52.736Z,100236.41
2022-10-22T10:05:20.634Z,100236.41
2022-10-22T10:07:48.638Z,100232.63
2022-10-22T10:10:16.606Z,100244.38
2022-10-22T10:15:17.118Z,100237.25
2022-10-22T10:17:46.741Z,100233.44
2022-10-22T10:20:14.823Z,100237.03
2022-10-22T10:22:42.892Z,100232.63
2022-10-22T10:25:11.045Z,100230.94
2022-10-22T10:27:38.912Z,100230.72
2022-10-22T10:30:06.785Z,100234.50
2022-10-22T10:32:34.649Z,100228.22
2022-10-22T10:35:02.444Z,100238.06
2022-10-22T10:37:30.335Z,100236.41
2022-10-22T10:39:58.334Z,100235.50
2022-10-22T10:42:26.196Z,100230.25
2022-10-22T10:44:54.032Z,100233.81
2022-10-22T10:47:21.883Z,100234.88
2022-10-22T10:49:49.785Z,100228.78
2022-10-22T10:52:20.502Z,100228.78
2022-10-22T10:54:49.466Z,100232.53
2022-10-22T10:57:17.422Z,100234.22
2022-10-22T10:59:45.271Z,100238.22
2022-10-22T11:02:13.137Z,100238.22
2022-10-22T11:04:41.003Z,100241.97
2022-10-22T11:07:11.256Z,100250.16
2022-10-22T11:09:44.740Z,100241.97
2022-10-22T11:12:12.482Z,100250.16
2022-10-22T11:14:40.485Z,100245.75
2022-10-22T11:17:08.434Z,100247.63
2022-10-22T11:19:53.795Z,100250.38
2022-10-22T11:22:26.813Z,100248.03
2022-10-22T11:24:55.057Z,100248.66
2022-10-22T11:27:22.962Z,100248.88
2022-10-22T11:29:50.838Z,100243.44
2022-10-22T11:32:18.537Z,100244.47
2022-10-22T11:34:46.358Z,100253.50
2022-10-22T11:37:14.236Z,100248.03
2022-10-22T11:39:42.113Z,100249.28
2022-10-22T11:42:09.901Z,100245.50
2022-10-22T11:44:37.816Z,100258.31
2022-10-22T11:47:05.639Z,100251.03
2022-10-22T11:49:33.343Z,100249.44
2022-10-22T11:52:04.298Z,100257.00
2022-10-22T11:54:32.905Z,100249.00
2022-10-22T11:57:02.616Z,100251.75
2022-10-22T11:59:30.363Z,100257.03
2022-10-22T12:01:58.153Z,100258.91
2022-10-22T12:04:26.086Z,100259.69
2022-10-22T12:06:53.865Z,100260.72
2022-10-22T12:09:21.699Z,100266.78
2022-10-22T12:11:49.502Z,100263.34
2022-10-22T12:14:20.458Z,100267.03
2022-10-22T12:16:56.294Z,100270.63
2022-10-22T12:19:25.172Z,100277.47
2022-10-22T12:21:52.954Z,100266.44
2022-10-22T12:24:20.915Z,100266.56
2022-10-22T12:26:49.997Z,100270.91
2022-10-22T12:29:17.981Z,100272.19
2022-10-22T12:31:45.826Z,100265.31
2022-10-22T12:34:13.615Z,100273.22
2022-10-22T12:36:41.504Z,100272.41
2022-10-22T12:39:09.390Z,100270.72
2022-10-22T12:41:37.169Z,100268.34
2022-10-22T12:44:13.921Z,100263.22
2022-10-22T12:46:41.768Z,100269.00
2022-10-22T12:49:12.421Z,100261.66
2022-10-22T12:51:40.377Z,100264.09
2022-10-22T12:54:08.124Z,100257.84
2022-10-22T12:56:36.360Z,100263.59
2022-10-22T12:59:04.258Z,100262.59
2022-10-22T13:01:32.165Z,100273.13
2022-10-22T13:04:00.125Z,100263.03
2022-10-22T13:06:27.891Z,100265.78
2022-10-22T13:08:55.893Z,100270.44
2022-10-22T13:11:23.811Z,100274.84
2022-10-22T13:13:51.678Z,100269.38
2022-10-22T13:16:19.496Z,100266.00
2022-10-22T13:18:47.434Z,100268.09
2022-10-22T13:21:15.325Z,100259.00
2022-10-22T13:23:43.079Z,100265.09
2022-10-22T13:26:10.812Z,100265.34
2022-10-22T13:28:38.641Z,100269.34
2022-10-22T13:31:06.360Z,100265.53
2022-10-22T13:33:34.465Z,100271.84
2022-10-22T13:36:02.293Z,100276.03
2022-10-22T13:38:30.564Z,100272.25
2022-10-22T13:40:59.370Z,100268.25
2022-10-22T13:43:27.273Z,100276.66
2022-10-22T13:45:55.037Z,100282.13
2022-10-22T13:48:23.005Z,100270.13
2022-10-22T13:50:50.915Z,100277.50
2022-10-22T13:53:19.095Z,100274.75
2022-10-22T13:55:47.735Z,100273.69
2022-10-22T14:00:50.298Z,100269.47
2022-10-22T14:03:18.185Z,100262.09
2022-10-22T14:05:46.484Z,100269.47
2022-10-22T14:08:14.476Z,100270.06
2022-10-22T14:10:42.412Z,100272.38
2022-10-22T14:13:12.272Z,100266.47
2022-10-22T14:15:40.139Z,100268.56
2022-10-22T14:18:08.002Z,100272.72
2022-10-22T14:20:35.877Z,100275.88
2022-10-22T14:23:03.689Z,100279.03
2022-10-22T14:25:32.030Z,100280.28
2022-10-22T14:27:59.859Z,100285.09
2022-10-22T14:30:29.748Z,100285.50
2022-10-22T14:32:57.595Z,100279.81
2022-10-22T14:35:25.515Z,100283.56
2022-10-22T14:37:53.882Z,100283.78
2022-10-22T14:40:21.819Z,100285.03
2022-10-22T14:42:49.574Z,100289.03
2022-10-22T14:45:17.477Z,100293.00
2022-10-22T14:47:45.447Z,100287.72
2022-10-22T14:50:13.750Z,100299.91
2022-10-22T14:52:43.557Z,100309.34
2022-10-22T14:55:11.885Z,100304.28
2022-10-22T14:57:40.669Z,100308.72
2022-10-22T15:00:08.943Z,100310.41
2022-10-22T15:02:36.826Z,100315.03
2022-10-22T15:05:06.866Z,100313.94
2022-10-22T15:07:34.774Z,100317.06
2022-10-22T15:10:02.526Z,100315.38
2022-10-22T15:12:30.428Z,100321.03
2022-10-22T15:14:58.235Z,100321.91
2022-10-22T15:17:26.066Z,100334.91
2022-10-22T15:19:56.327Z,100329.66
2022-10-22T15:22:24.123Z,100326.06
2022-10-22T15:24:53.767Z,100324.41
2022-10-22T15:27:21.668Z,100328.81
2022-10-22T15:29:49.475Z,100332.78
2022-10-22T15:32:17.387Z,100329.00
2022-10-22T15:34:52.518Z,100333.44
2022-10-22T15:37:22.650Z,100337.41
2022-10-22T15:39:50.327Z,100341.38
2022-10-22T15:42:18.596Z,100343.66
2022-10-22T15:44:46.284Z,100344.94
2022-10-22T15:47:14.011Z,100351.41
2022-10-22T15:49:44.371Z,100360.44
2022-10-22T15:52:14.281Z,100354.97
2022-10-22T15:54:44.589Z,100354.97
2022-10-22T15:57:12.315Z,100360.44
2022-10-22T15:59:42.025Z,100364.03
2022-10-22T16:02:10.452Z,100358.78
2022-10-22T16:04:38.169Z,100357.09
2022-10-22T16:07:05.869Z,100362.75
2022-10-22T16:09:35.730Z,100371.78
2022-10-22T16:12:03.540Z,100359.16
2022-10-22T16:14:31.181Z,100363.78
2022-10-22T16:16:59.728Z,100361.25
2022-10-22T16:19:27.451Z,100358.50
2022-10-22T16:21:55.328Z,100357.47
2022-10-22T16:24:23.025Z,100365.03
2022-10-22T16:26:50.814Z,100367.75
2022-10-22T16:29:18.677Z,100367.94
2022-10-22T16:31:46.381Z,100388.31
2022-10-22T16:34:14.092Z,100377.38
2022-10-22T16:36:41.830Z,100391.03
2022-10-22T16:39:11.614Z,100386.41
2022-10-22T16:41:39.435Z,100387.25
2022-10-22T16:44:07.756Z,100397.16
2022-10-22T16:46:38.330Z,100398.19
2022-10-22T16:49:06.082Z,100397.72
2022-10-22T16:51:33.949Z,100403.16
2022-10-22T16:54:01.880Z,100414.28
2022-10-22T16:56:29.998Z,100409.03
2022-10-22T16:58:57.694Z,100413.66
2022-10-22T17:01:26.028Z,100408.38
2022-10-22T17:03:54.649Z,100419.31
2022-10-22T17:06:22.685Z,100414.03
2022-10-22T17:08:50.463Z,100418.47
2022-10-22T17:11:18.374Z,100426.00
2022-10-22T17:13:46.043Z,100423.25
2022-10-22T17:16:13.979Z,100424.09
2022-10-22T17:18:41.858Z,100431.47
2022-10-22T17:21:09.603Z,100438.81
2022-10-22T17:23:37.271Z,100437.09
2022-10-22T17:26:06.506Z,100441.72
2022-10-22T17:28:34.197Z,100445.13
2022-10-22T17:31:02.026Z,100450.75
2022-10-22T17:33:29.751Z,100443.44
2022-10-22T17:35:57.436Z,100454.38
2022-10-22T17:38:25.082Z,100448.91
2022-10-22T17:40:52.760Z,100448.03
2022-10-22T17:43:20.468Z,100452.66
2022-10-22T17:45:48.296Z,100452.66
2022-10-22T17:48:15.968Z,100457.28
2022-10-22T17:50:46.970Z,100459.34
2022-10-22T17:53:17.417Z,100465.03
2022-10-22T17:55:45.281Z,100460.59
2022-10-22T17:58:13.109Z,100462.69
2022-10-22T18:00:40.826Z,100465.41
2022-10-22T18:03:08.782Z,100459.94
2022-10-22T18:05:36.559Z,100468.16
2022-10-22T18:08:07.755Z,100467.28
2022-10-22T18:10:35.620Z,100462.69
2022-10-22T18:13:03.456Z,100471.72
2022-10-22T18:15:38.869Z,100472.75
2022-10-22T18:18:06.519Z,100474.63
2022-10-22T18:20:34.466Z,100481.13
2022-10-22T18:23:03.609Z,100471.06
2022-10-22T18:25:31.783Z,100472.94
2022-10-22T18:27:59.474Z,100474.63
2022-10-22T18:30:27.108Z,100484.47
2022-10-22T18:32:54.769Z,100480.72
2022-10-22T18:35:22.439Z,100490.63
2022-10-22T18:37:50.128Z,100493.25
2022-10-22T18:40:17.868Z,100494.84
2022-10-22T18:42:46.154Z,100486.97
2022-10-22T18:45:14.200Z,100488.72
2022-10-22T18:47:42.087Z,100487.50
2022-10-22T18:50:09.750Z,100485.22
2022-10-22T18:52:37.510Z,100482.47
2022-10-22T18:55:05.329Z,100485.59
2022-10-22T18:57:33.361Z,100500.09
2022-10-22T19:00:01.269Z,100491.63
2022-10-22T19:02:30.165Z,100497.69
2022-10-22T19:04:58.031Z,100494.09
2022-10-22T19:07:25.838Z,100497.38
2022-10-22T19:09:53.774Z,100497.13
2022-10-22T19:12:21.783Z,100496.88
2022-10-22T19:14:49.868Z,100498.31
2022-10-22T19:17:17.643Z,100499.09
2022-10-22T19:19:45.528Z,100504.13
2022-10-22T19:22:13.410Z,100507.47
2022-10-22T19:24:41.267Z,100506.16
2022-10-22T19:27:09.708Z,100512.00
2022-10-22T19:29:37.660Z,100507.34
2022-10-22T19:32:05.581Z,100507.75
2022-10-22T19:34:33.510Z,100515.28
2022-10-22T19:37:01.536Z,100517.53
2022-10-22T19:39:29.438Z,100516.03
2022-10-22T19:41:57.405Z,100520.88
2022-10-22T19:44:25.328Z,100516.44
2022-10-22T19:46:53.217Z,100522.28
2022-10-22T19:49:22.979Z,100523.53
2022-10-22T19:51:51.227Z,100535.69
2022-10-22T19:54:20.630Z,100536.53
2022-10-22T19:56:48.800Z,100539.47
2022-10-22T19:59:16.729Z,100544.94
2022-10-22T20:01:44.692Z,100545.34
2022-10-22T20:04:12.681Z,100549.09
2022-10-22T20:06:41.825Z,100551.16
2022-10-22T20:09:11.305Z,100563.13
2022-10-22T20:11:39.333Z,100563.28
2022-10-22T20:14:07.293Z,100568.94
2022-10-22T20:16:36.172Z,100567.06
2022-10-22T20:19:04.067Z,100561.78
2022-10-22T20:21:32.226Z,100577.31
2022-10-22T20:24:00.134Z,100577.53
2022-10-22T20:26:28.501Z,100572.25
2022-10-22T20:28:56.408Z,100572.44
2022-10-22T20:31:24.454Z,100565.28
2022-10-22T20:33:52.756Z,100581.00
2022-10-22T20:36:20.898Z,100583.13
2022-10-22T20:38:49.176Z,100588.56
2022-10-22T20:41:17.222Z,100577.66
2022-10-22T20:43:45.169Z,100591.31
2022-10-22T20:46:13.375Z,100590.44
2022-10-22T20:48:41.323Z,100592.31
2022-10-22T20:51:09.272Z,100598.84
2022-10-22T20:53:37.118Z,100595.28
2022-10-22T20:56:05.092Z,100592.53
2022-10-22T20:58:33.119Z,100597.13
2022-10-22T21:01:05.633Z,100598.19
2022-10-22T21:06:01.557Z,100607.59
2022-10-22T21:08:29.637Z,100606.75
2022-10-22T21:10:57.735Z,100611.38
2022-10-22T21:13:25.664Z,100603.19
2022-10-22T21:15:54.257Z,100590.53
2022-10-22T21:18:22.233Z,100589.69
2022-10-22T21:20:50.238Z,100602.53
2022-10-22T21:23:18.429Z,100606.25
2022-10-22T21:25:46.341Z,100600.81
2022-10-22T21:28:14.292Z,100610.03
2022-10-22T21:30:42.234Z,100606.47
2022-10-22T21:33:10.102Z,100606.47
2022-10-22T21:35:37.995Z,100599.97
2022-10-22T21:38:07.907Z,100604.97
2022-10-22T21:40:35.627Z,100603.25
2022-10-22T21:43:03.350Z,100588.75
2022-10-22T21:45:31.123Z,100586.88
2022-10-22T21:47:58.834Z,100595.94
2022-10-22T21:50:26.521Z,100594.88
2022-10-22T21:52:54.275Z,100595.06
2022-10-22T21:55:21.954Z,100593.22
2022-10-22T21:57:49.690Z,100598.84
2022-10-22T22:00:17.368Z,100593.56
2022-10-22T22:02:45.167Z,100589.81
2022-10-22T22:05:12.983Z,100589.81
2022-10-22T22:07:40.641Z,100599.03
2022-10-22T22:10:08.336Z,100595.44
2022-10-22T22:12:36.030Z,100599.03
2022-10-22T22:15:03.765Z,100599.22
2022-10-22T22:17:31.711Z,100606.19
2022-10-22T22:19:59.427Z,100609.94
2022-10-22T22:22:27.951Z,100609.09
2022-10-22T22:24:55.596Z,100606.59
2022-10-22T22:27:23.359Z,100601.97
2022-10-22T22:29:51.057Z,100607.41
2022-10-22T22:32:18.876Z,100609.31
2022-10-22T22:34:46.630Z,100602.13
2022-10-22T22:37:14.294Z,100608.66
2022-10-22T22:39:41.959Z,100606.94
2022-10-22T22:42:09.673Z,100611.56
2022-10-22T22:44:37.561Z,100615.13
2022-10-22T22:47:05.200Z,100613.44
2022-10-22T22:49:32.891Z,100606.09
2022-10-22T22:54:28.303Z,100608.16
2022-10-22T22:56:56.045Z,100607.31
2022-10-22T22:59:23.767Z,100616.34
2022-10-22T23:01:51.509Z,100618.22
2022-10-22T23:04:22.690Z,100612.97
2022-10-22T23:06:50.480Z,100616.56
2022-10-22T23:11:45.958Z,100614.88
2022-10-22T23:14:13.851Z,100610.44
2022-10-22T23:16:41.563Z,100615.88
2022-10-22T23:19:09.209Z,100613.16
2022-10-22T23:21:36.943Z,100616.94
2022-10-22T23:24:04.689Z,100608.09
2022-10-22T23:26:32.371Z,100605.34
2022-10-22T23:29:00.086Z,100605.34
2022-10-22T23:31:27.839Z,100603.47
2022-10-22T23:33:55.568Z,100602.78
2022-10-22T23:36:23.249Z,100600.94
2022-10-22T23:38:50.992Z,100595.47
2022-10-22T23:41:18.709Z,100600.94
2022-10-22T23:43:46.722Z,100595.47
2022-10-22T23:46:14.387Z,100592.94
2022-10-22T23:48:42.134Z,100591.25
2022-10-22T23:51:09.785Z,100592.25
2022-10-22T23:53:37.476Z,100594.16
2022-10-22T23:56:05.191Z,100594.16
2022-10-22T23:58:33.018Z,100589.53
